Terminal Aerodrome Forecast
Issued by NWS

Current Version | Previous Version | Graphics & Text | Print | Product List | Glossary On
Versions: 1 2 3 4 5 6 7 8 9 10 11 12 13 14 15 16 17
900
FTUS41 KPBZ 101737
TAFMGW
TAF
KMGW 101737Z 1018/1118 25010G18KT P6SM OVC025
     FM101900 26014G18KT P6SM BKN035
     FM110700 25010KT P6SM OVC025
     FM111700 22006KT P6SM BKN040=

USA.gov is the U.S. government's official web portal to all federal, state and local government web resources and services.